createdAt,value
2023-04-08T00:00:59.165Z,6.73
2023-04-08T00:02:37.013Z,6.78
2023-04-08T00:04:17.847Z,6.74
2023-04-08T00:05:47.829Z,6.78
2023-04-08T00:07:15.314Z,6.76
2023-04-08T00:08:53.873Z,6.77
2023-04-08T00:10:27.172Z,6.81
2023-04-08T00:12:01.759Z,6.80
2023-04-08T00:16:19.156Z,6.79
2023-04-08T00:20:20.784Z,6.79
2023-04-08T00:22:54.023Z,6.76
2023-04-08T00:28:26.289Z,6.74
2023-04-08T00:30:08.843Z,6.78
2023-04-08T00:31:53.292Z,6.73
2023-04-08T00:34:08.772Z,6.75
2023-04-08T00:35:39.383Z,6.83
2023-04-08T00:37:40.999Z,6.77
2023-04-08T00:42:26.024Z,6.80
2023-04-08T00:44:38.692Z,6.89
2023-04-08T00:46:56.724Z,6.86
2023-04-08T00:52:21.079Z,6.82
2023-04-08T00:56:32.673Z,6.75
2023-04-08T00:58:19.023Z,6.84
2023-04-08T00:59:52.698Z,6.86
2023-04-08T01:01:34.094Z,6.89
2023-04-08T01:03:53.027Z,6.82
2023-04-08T01:06:43.815Z,6.84
2023-04-08T01:08:30.443Z,6.87
2023-04-08T01:10:29.564Z,6.88
2023-04-08T01:12:04.066Z,6.89
2023-04-08T01:14:34.282Z,6.89
2023-04-08T01:18:49.194Z,6.93
2023-04-08T01:23:41.618Z,7.03
2023-04-08T01:28:36.894Z,6.99
2023-04-08T01:30:43.208Z,7.01
2023-04-08T01:35:30.902Z,6.95
2023-04-08T01:37:10.577Z,7.06
2023-04-08T01:38:41.262Z,6.97
2023-04-08T01:40:34.467Z,7.00
2023-04-08T01:42:03.889Z,7.01
2023-04-08T01:44:03.685Z,7.00
2023-04-08T01:46:46.024Z,7.01
2023-04-08T01:47:59.319Z,7.01
2023-04-08T01:50:10.467Z,7.07
2023-04-08T01:54:09.723Z,6.98
2023-04-08T01:55:40.778Z,6.98
2023-04-08T01:59:51.970Z,6.98
2023-04-08T02:02:26.001Z,6.93
2023-04-08T02:07:54.060Z,6.82
2023-04-08T02:09:38.495Z,6.72
2023-04-08T02:11:08.523Z,6.76
2023-04-08T02:12:45.287Z,6.74
2023-04-08T02:15:07.465Z,6.72
2023-04-08T02:16:57.605Z,6.64
2023-04-08T02:18:45.519Z,6.56
2023-04-08T02:20:15.721Z,6.60
2023-04-08T02:22:14.988Z,6.56
2023-04-08T02:26:54.907Z,6.55
2023-04-08T02:28:21.962Z,6.59
2023-04-08T02:30:03.693Z,6.60
2023-04-08T02:31:39.037Z,6.58
2023-04-08T02:37:16.180Z,6.58
2023-04-08T02:41:12.972Z,6.50
2023-04-08T04:34:26.848Z,6.24
2023-04-08T04:36:28.638Z,6.29
2023-04-08T04:40:53.560Z,6.23
2023-04-08T04:48:40.570Z,6.22
2023-04-08T04:51:02.875Z,6.20
2023-04-08T05:00:09.703Z,6.33
2023-04-08T05:02:12.249Z,6.35
2023-04-08T05:04:06.134Z,6.29
2023-04-08T05:08:07.728Z,6.34
2023-04-08T05:10:52.914Z,6.44
2023-04-08T05:13:29.970Z,6.34
2023-04-08T05:28:13.104Z,6.41
2023-04-08T05:33:08.236Z,6.38
2023-04-08T08:16:27.863Z,11.95
2023-04-08T08:31:05.832Z,11.45
2023-04-08T10:05:08.326Z,11.91
2023-04-08T10:09:42.285Z,11.66
2023-04-08T10:11:08.668Z,11.64
2023-04-08T10:13:14.510Z,11.57
2023-04-08T10:15:25.454Z,11.64
2023-04-08T10:17:36.970Z,11.73
2023-04-08T10:19:02.752Z,11.82
2023-04-08T10:20:54.493Z,11.90
2023-04-08T10:22:54.770Z,11.79
2023-04-08T10:25:59.186Z,11.84
2023-04-08T10:39:48.932Z,12.91
2023-04-08T10:53:12.980Z,14.98
2023-04-08T10:55:36.258Z,15.09
2023-04-08T10:58:24.517Z,15.44
2023-04-08T11:03:35.661Z,15.57
2023-04-08T11:05:40.801Z,15.63
2023-04-08T11:07:13.688Z,15.47
2023-04-08T11:08:42.960Z,15.41
2023-04-08T11:10:06.264Z,15.51
2023-04-08T11:21:05.776Z,15.52
2023-04-08T11:23:03.992Z,15.58
2023-04-08T11:25:21.807Z,15.46
2023-04-08T11:30:25.323Z,15.38
2023-04-08T11:32:11.113Z,15.37
2023-04-08T11:51:48.095Z,13.73
2023-04-08T11:53:38.146Z,13.57
2023-04-08T11:58:44.512Z,13.21
2023-04-08T12:27:17.840Z,14.21
2023-04-08T12:33:22.532Z,14.61
2023-04-08T12:34:51.463Z,14.70
2023-04-08T12:36:25.719Z,14.83
2023-04-08T12:37:56.282Z,14.81
2023-04-08T12:39:19.554Z,14.79
2023-04-08T12:40:52.167Z,14.78
2023-04-08T12:46:10.818Z,14.89
2023-04-08T12:47:36.375Z,15.00
2023-04-08T12:49:04.182Z,15.02
2023-04-08T12:50:41.021Z,15.01
2023-04-08T12:52:05.717Z,14.96
2023-04-08T12:53:28.251Z,15.02
2023-04-08T12:54:50.864Z,15.12
2023-04-08T12:56:13.930Z,15.24
2023-04-08T12:57:36.368Z,15.33
2023-04-08T14:47:45.022Z,13.90
2023-04-08T14:53:05.268Z,14.11
2023-04-08T14:54:32.828Z,14.07
2023-04-08T14:56:26.648Z,14.18
2023-04-08T14:57:53.049Z,14.13
2023-04-08T14:59:22.881Z,14.22
2023-04-08T15:00:50.383Z,14.17
2023-04-08T15:02:16.360Z,14.25
2023-04-08T15:03:43.842Z,14.24
2023-04-08T15:05:10.153Z,14.27
2023-04-08T15:06:33.773Z,14.20
2023-04-08T15:08:11.861Z,14.19
2023-04-08T15:09:34.814Z,14.17
2023-04-08T15:11:21.197Z,14.19
2023-04-08T15:13:06.700Z,14.17
2023-04-08T15:15:35.078Z,14.03
2023-04-08T15:17:10.438Z,14.02
2023-04-08T15:20:48.083Z,13.89
2023-04-08T15:23:24.143Z,13.92
2023-04-08T15:25:21.736Z,13.83
2023-04-08T15:34:15.603Z,13.66
2023-04-08T15:36:46.235Z,13.46
2023-04-08T15:38:20.909Z,13.42
2023-04-08T18:34:36.792Z,10.30
2023-04-08T18:36:14.983Z,10.30
2023-04-08T18:37:40.074Z,10.27
2023-04-08T18:39:12.323Z,10.29
2023-04-08T18:40:34.851Z,10.28
2023-04-08T18:42:08.666Z,10.32
2023-04-08T18:43:31.511Z,10.32
2023-04-08T18:45:03.483Z,10.31
2023-04-08T18:46:26.459Z,10.38
2023-04-08T18:47:49.295Z,10.33
2023-04-08T18:49:12.190Z,10.40
2023-04-08T18:50:36.008Z,10.39
2023-04-08T18:52:02.527Z,10.40
2023-04-08T18:54:05.979Z,10.31
2023-04-08T18:55:28.639Z,10.31
2023-04-08T18:56:51.004Z,10.34
2023-04-08T18:58:13.892Z,10.30
2023-04-08T18:59:38.966Z,10.30
2023-04-08T19:01:08.157Z,10.39
2023-04-08T19:02:33.640Z,10.30
2023-04-08T19:04:03.015Z,10.38
2023-04-08T19:05:26.623Z,10.39
2023-04-08T19:06:54.012Z,10.39
2023-04-08T19:08:16.542Z,10.34
2023-04-08T19:09:49.013Z,10.30
2023-04-08T19:11:14.116Z,10.39
2023-04-08T19:12:41.178Z,10.38
2023-04-08T19:14:15.837Z,10.33
2023-04-08T19:15:42.197Z,10.32
2023-04-08T19:17:09.780Z,10.37
2023-04-08T19:18:35.032Z,10.35
2023-04-08T19:20:00.118Z,10.27
2023-04-08T19:21:25.791Z,10.31
2023-04-08T19:22:54.091Z,10.29
2023-04-08T19:24:22.972Z,10.29
2023-04-08T19:25:48.580Z,10.29
2023-04-08T19:27:12.336Z,10.30
2023-04-08T19:28:34.689Z,10.32
2023-04-08T19:29:59.825Z,10.32
2023-04-08T19:31:33.518Z,10.27
2023-04-08T19:33:21.143Z,10.29
2023-04-08T19:34:43.367Z,10.28
2023-04-08T19:36:07.566Z,10.29
2023-04-08T19:37:32.434Z,10.26
2023-04-08T19:44:43.192Z,10.20
2023-04-08T19:47:09.444Z,10.19
2023-04-08T19:48:47.552Z,10.13
2023-04-08T19:50:43.397Z,10.15
2023-04-08T19:56:06.443Z,10.11
2023-04-08T20:07:12.016Z,9.93
2023-04-08T20:14:53.422Z,9.98
2023-04-08T22:10:11.202Z,9.40
2023-04-08T22:28:25.054Z,9.43
2023-04-08T23:10:02.132Z,9.20
2023-04-08T23:11:34.072Z,9.21
2023-04-08T23:13:04.351Z,9.31
2023-04-08T23:14:31.437Z,9.32
2023-04-08T23:15:56.424Z,9.29
2023-04-08T23:17:21.352Z,9.32
2023-04-08T23:18:52.628Z,9.35
2023-04-08T23:20:24.255Z,9.35
2023-04-08T23:22:03.908Z,9.29
2023-04-08T23:23:28.359Z,9.37
2023-04-08T23:25:20.622Z,9.35
2023-04-08T23:26:42.272Z,9.36
2023-04-08T23:28:20.688Z,9.40
2023-04-08T23:30:11.760Z,9.31
2023-04-08T23:31:35.181Z,9.35
2023-04-08T23:33:42.206Z,9.36
2023-04-08T23:35:20.511Z,9.30
2023-04-08T23:36:58.932Z,9.37
2023-04-08T23:38:55.477Z,9.29
2023-04-08T23:40:30.148Z,9.36
2023-04-08T23:45:15.707Z,9.26
2023-04-08T23:49:13.346Z,9.22
2023-04-08T23:50:54.451Z,9.27
2023-04-08T23:52:20.163Z,9.19
2023-04-08T23:57:36.104Z,9.17
